Stations météo

réclame
Mon MeteoGroup
Sylarna, Suède (2209): Température de l'air & dewpoint: 12.02.2019 01:00:00 - 18.02.2019 01:00:00 (CET)Sylarna, Suède (2209): Vitesse du vent & gusts: 12.02.2019 01:00:00 - 18.02.2019 01:00:00 (CET)Sylarna, Suède (2209): Direction du vent: 12.02.2019 01:00:00 - 18.02.2019 01:00:00 (CET)
Date & Time tt [°C] td [°C] ff [km/h] ff [knt] fx [km/h] fx [knt] dd
18.02.2019 01:00:00 0,9 -2,6 50 27 - - S
18.02.2019 00:00:00 3,4 -3,4 39 21 67 36 SSW
17.02.2019 23:00:00 0,3 -3,1 46 25 61 33 SSW
17.02.2019 22:00:00 0,9 -2,7 37 20 68 37 SSW
17.02.2019 21:00:00 -1,5 -3,8 39 21 59 32 SE
17.02.2019 20:00:00 -0,4 -3,4 35 19 52 28 SSW
17.02.2019 19:00:00 -0,2 -3,6 35 19 48 26 S
17.02.2019 18:00:00 -2,3 -4,5 36 19 58 31 SSW
17.02.2019 17:00:00 -4,0 -5,5 38 21 45 25 SSE
17.02.2019 16:00:00 -2,0 -5,0 30 16 54 29 S
17.02.2019 15:00:00 -3,1 -6,2 38 21 57 31 SSW
17.02.2019 14:00:00 -1,9 -9,1 12 7 48 26 SW
17.02.2019 13:00:00 -2,5 -10,3 27 15 50 27 SSW
17.02.2019 12:00:00 -3,9 -9,7 36 20 48 26 S
17.02.2019 11:00:00 -5,3 -10,6 7 4 47 25 NE
17.02.2019 10:00:00 -4,4 -12,5 25 13 42 23 SE
17.02.2019 09:00:00 -5,8 -9,2 15 8 33 18 SE
17.02.2019 08:00:00 -6,0 -8,9 11 6 17 9 S
17.02.2019 07:00:00 -6,2 -8,3 5 3 14 8 SSE
17.02.2019 06:00:00 - - - - 26 14 -
17.02.2019 05:00:00 -5,8 -8,5 20 11 34 18 WNW
17.02.2019 04:00:00 -5,8 -7,6 25 14 42 23 NW
17.02.2019 03:00:00 -5,9 -7,4 34 18 49 26 NW
17.02.2019 02:00:00 -5,6 -6,1 27 15 41 22 WNW
17.02.2019 01:00:00 -5,6 -6,3 36 19 54 29 WNW
17.02.2019 00:00:00 -5,6 -6,7 42 23 54 29 WNW
16.02.2019 23:00:00 -5,5 -6,7 27 15 46 25 WNW
16.02.2019 22:00:00 -5,6 -6,3 38 21 56 30 NW
16.02.2019 21:00:00 -5,6 -6,4 39 21 63 34 WNW
16.02.2019 20:00:00 -5,3 -5,8 50 27 68 37 NW
16.02.2019 19:00:00 -5,2 -6,2 46 25 68 37 WNW
16.02.2019 18:00:00 -5,1 -6,3 50 27 68 37 WNW
16.02.2019 17:00:00 -4,7 -5,2 49 26 66 36 WNW
16.02.2019 16:00:00 -4,2 -4,6 43 23 59 32 NW
16.02.2019 15:00:00 -4,4 -4,9 41 22 53 29 WNW
16.02.2019 14:00:00 -4,2 -4,7 39 21 56 30 W
16.02.2019 13:00:00 -2,6 -3,3 46 25 61 33 W
16.02.2019 12:00:00 -3,1 -3,6 34 18 51 28 W
16.02.2019 11:00:00 -2,8 -3,2 32 17 51 28 W
16.02.2019 10:00:00 -2,6 -3,0 37 20 50 27 W
16.02.2019 09:00:00 -2,2 -2,6 37 20 48 26 W
16.02.2019 08:00:00 -2,0 -2,3 37 20 53 28 W
16.02.2019 07:00:00 -1,1 -1,4 34 18 43 23 WNW
16.02.2019 06:00:00 0,7 -4,3 19 10 42 23 W
16.02.2019 05:00:00 1,8 -6,0 35 19 78 42 WSW
16.02.2019 04:00:00 5,5 -8,0 45 24 91 49 SW
16.02.2019 03:00:00 6,4 -8,0 38 21 84 46 SSW
16.02.2019 02:00:00 6,8 -8,4 34 19 97 53 SSW
16.02.2019 01:00:00 8,2 -9,7 54 29 80 43 SW
16.02.2019 00:00:00 6,7 -8,8 49 26 78 42 WSW
15.02.2019 23:00:00 6,3 -9,6 54 29 81 44 WSW
15.02.2019 22:00:00 6,0 -8,7 58 31 90 49 SW
15.02.2019 21:00:00 6,3 -8,0 56 31 90 49 SW
15.02.2019 20:00:00 6,5 -6,8 63 34 95 51 SW
15.02.2019 19:00:00 6,2 -6,7 59 32 87 47 SW
15.02.2019 18:00:00 6,7 -5,6 39 21 66 36 SW
15.02.2019 17:00:00 7,0 -6,7 44 24 74 40 SW
15.02.2019 16:00:00 7,7 -5,7 46 25 76 41 SW
15.02.2019 15:00:00 7,3 -4,5 44 24 67 36 SW
15.02.2019 14:00:00 5,4 -3,2 40 22 64 34 SW
15.02.2019 13:00:00 6,1 -4,7 31 17 66 35 SW
15.02.2019 12:00:00 6,4 -3,8 41 22 77 41 WSW
15.02.2019 11:00:00 5,9 0,2 34 19 62 33 WSW
15.02.2019 10:00:00 3,7 1,9 40 21 59 32 W
15.02.2019 09:00:00 3,1 2,5 45 24 69 37 W
15.02.2019 08:00:00 2,7 2,6 45 24 73 39 W
15.02.2019 07:00:00 2,3 2,3 42 23 70 38 W
15.02.2019 06:00:00 2,5 2,4 53 28 86 46 W
15.02.2019 05:00:00 1,3 1,0 44 24 62 34 W
15.02.2019 04:00:00 -0,3 -1,0 32 17 49 26 WSW
15.02.2019 03:00:00 -1,0 -1,6 35 19 55 30 W
15.02.2019 02:00:00 -1,1 -1,7 42 23 63 34 W
15.02.2019 01:00:00 -0,7 -2,1 46 25 64 35 W
15.02.2019 00:00:00 -0,5 -3,0 43 23 69 37 W
14.02.2019 23:00:00 -0,5 -3,7 39 21 60 33 WSW
14.02.2019 22:00:00 -0,1 -3,0 38 20 66 36 W
14.02.2019 21:00:00 0,0 -2,7 39 21 63 34 W
14.02.2019 20:00:00 0,1 -2,6 50 27 76 41 W
14.02.2019 19:00:00 0,4 -2,6 46 25 71 38 W
14.02.2019 18:00:00 0,6 -3,0 45 25 73 40 W
14.02.2019 17:00:00 1,2 -2,6 53 29 81 44 W
14.02.2019 16:00:00 1,7 -3,0 57 31 84 46 W
14.02.2019 15:00:00 2,1 -4,2 45 24 74 40 W
14.02.2019 14:00:00 2,4 -1,0 46 25 68 37 W
14.02.2019 13:00:00 2,8 0,7 39 21 76 41 W
14.02.2019 12:00:00 - - - - 74 40 -
14.02.2019 11:00:00 4,2 -0,8 40 22 91 49 SSW
14.02.2019 10:00:00 4,9 -0,7 48 26 83 45 SSW
14.02.2019 09:00:00 3,8 -1,2 40 22 79 43 S
14.02.2019 08:00:00 3,4 -1,6 40 21 84 45 SSW
14.02.2019 07:00:00 3,4 -1,6 55 30 88 48 SW
14.02.2019 06:00:00 3,8 -1,4 56 30 78 42 SW
14.02.2019 05:00:00 3,8 -1,4 54 29 84 45 SW
14.02.2019 04:00:00 3,7 -1,5 53 29 80 43 SW
14.02.2019 03:00:00 4,0 -1,2 38 21 67 36 SW
14.02.2019 02:00:00 3,0 -1,7 37 20 68 37 SW
14.02.2019 01:00:00 3,1 -2,0 36 19 61 33 WSW
14.02.2019 00:00:00 2,8 -1,7 35 19 64 35 WSW
13.02.2019 23:00:00 0,8 -2,1 31 17 67 36 WSW
13.02.2019 22:00:00 0,7 -4,5 40 21 57 31 W
13.02.2019 21:00:00 -0,7 -7,5 19 11 48 26 WNW
13.02.2019 20:00:00 - - - - 53 29 -
13.02.2019 19:00:00 -1,8 -7,5 40 22 68 37 WNW
13.02.2019 18:00:00 -2,7 -3,4 35 19 53 29 W
13.02.2019 17:00:00 -2,2 -2,6 45 24 67 36 WNW
13.02.2019 16:00:00 -2,2 -2,6 55 30 80 43 WNW
13.02.2019 15:00:00 -2,4 -2,7 56 31 88 48 WNW
13.02.2019 14:00:00 - - - - 95 52 -
13.02.2019 13:00:00 -1,6 -1,8 45 24 77 41 WNW
13.02.2019 12:00:00 -1,6 -1,7 50 27 80 43 W
13.02.2019 11:00:00 -0,9 -1,3 53 29 90 49 W
13.02.2019 10:00:00 -1,0 -1,6 50 27 91 49 W
13.02.2019 09:00:00 -0,7 -1,1 58 31 80 43 W
13.02.2019 08:00:00 -1,4 -1,7 55 30 82 44 W
13.02.2019 07:00:00 -1,5 -1,8 52 28 83 45 W
13.02.2019 06:00:00 -1,4 -1,5 58 31 81 44 W
13.02.2019 05:00:00 -1,4 -1,4 57 31 95 51 W
13.02.2019 04:00:00 -1,1 -1,7 61 33 85 46 W
13.02.2019 03:00:00 -1,4 -2,5 46 25 85 46 W
13.02.2019 02:00:00 -1,9 -3,0 40 21 66 36 WSW
13.02.2019 01:00:00 -0,7 -2,6 41 22 64 34 W
13.02.2019 00:00:00 0,0 -2,2 27 15 51 28 WSW
12.02.2019 23:00:00 -0,4 -2,5 24 13 57 31 WSW
12.02.2019 22:00:00 -2,5 -2,9 - - - - -
12.02.2019 21:00:00 -2,4 -4,0 25 14 47 25 SW
12.02.2019 20:00:00 -4,1 -5,2 6 3 35 19 N
12.02.2019 19:00:00 -4,5 -6,2 3 2 16 9 NNE
12.02.2019 18:00:00 -3,7 -6,6 5 3 21 11 WSW
12.02.2019 17:00:00 -3,6 -6,9 11 6 34 18 S
12.02.2019 16:00:00 -5,0 -7,0 18 10 29 16 SSW
12.02.2019 15:00:00 -4,3 -5,3 12 7 31 17 WSW
12.02.2019 14:00:00 -4,9 -5,4 18 10 33 18 W
12.02.2019 13:00:00 -5,3 -6,0 22 12 - - W
12.02.2019 12:00:00 -5,9 -6,6 30 16 38 21 W
12.02.2019 11:00:00 -6,8 -7,5 28 15 41 22 W
12.02.2019 10:00:00 -7,5 -8,3 27 14 44 24 WNW
12.02.2019 09:00:00 -8,1 -8,9 29 16 42 23 WNW
12.02.2019 08:00:00 -8,2 -9,0 28 15 44 24 WNW
12.02.2019 07:00:00 -8,1 -9,0 35 19 49 27 W
12.02.2019 06:00:00 -8,0 -8,8 34 18 51 28 W
12.02.2019 05:00:00 -8,3 -9,1 36 19 58 31 W
12.02.2019 04:00:00 -8,1 -8,9 37 20 54 29 WNW
12.02.2019 03:00:00 -8,1 -8,9 32 18 55 30 WNW
12.02.2019 02:00:00 -7,9 -8,7 40 21 54 29 WNW
12.02.2019 01:00:00 -7,9 -8,7 37 20 54 29 WNW

tt = Température de l'air
td = dewpoint
ff = Vitesse du vent
fx = gusts
dd = Direction du vent

stations d'obs. à proximité